14:52
Airports
History
Links
Donate
Help keep this website running!
PayPal
Bitcoin
This page is community maintained. The information is intended for PC simulator navigation or reference.
Always use approved charts for navigation.
ME84
Banks
Banks (ME84)
Swans Island, Maine, United States (4685)
4
Lat/Lng:44° 9' 55.29" N / 68° 25' 40.07" W
44.165359 / -68.427796
Elevation:100'ft / 30mMSL
ID / ICAO:ME84
Runways:1
Longest:(09-27) 450.6m / 1,478ft Gravel
Distance To
Airport ID:
Nearby VORs <50NM
Nearby NDBs
Nearby WeatherUpdated 08-19-17 14:38 GMT
Nearby weather at KBHB, Hancock County-bar Harbor located 19.9 nautical miles from ME84
Altimeter: 29.80
Visibility: 2.0 statute miles
Wind: 0 knots (000°)
Temp: 18°c 64°f
Humidity: 100.0%

METAR: KBHB 191438Z AUTO 00000KT 2SM BR OVC003 18/18 A2980 RMK AO2 $

(Powered by phpweather)
Runway 09 / 27
Dimensions:450.6 x 9.1m 1478' x 30'ft
Surface:Gravel
Runway 09 [A]Runway 27 [B]
Heading:070°TH 250°TH
Lat:
Lng:
44° 9' 52.88"N
68° 25' 49.83"W
44° 9' 57.71"N
68° 25' 30.31"W
User Notes and Comments
Google Map
Nearby Airports
(U) Stonington Muni 12.5 NM
93B W 272°
(U) Hancock County-bar Harbor 19.9 NM
KBHB (WX) N
(R) Vinalhaven 20.4 NM
ME55 WSW 251°
4 Blue Hill 20.7 NM
07B NNW 340°
(R) Witherspoons Landing Strip, In 22.3 NM
ME41 W 267°
(U) Islesboro 25.7 NM
57B WNW 291°
(U) Belfast Muni 33.4 NM
KBST WNW 300°
VFR Chart
Flight Planning at SkyVector.com